Flight Track Log - Related Links

Times and Time Zones

All times are in EDT time to prevent confusion due to time zone crossing. See the EGF2839 flight status page for this flight to view local times or setup timezone preferences in your user account.

Time Position Orientation Groundspeed Altitude Reporting Facility
EDT Latitude Longitude Course Direction KTS MPH feet Rate Location/Type
Mon 04:12:52 PM 32.9167 -97.0333 357° North 156 180 1,200  Level Dallas / Fort Worth TRACON
Mon 04:13:10 PM 32.9333 -97.0333 360° North 178 205 1,900 2,346 Climbing Dallas / Fort Worth TRACON
Mon 04:15:00 PM 33.0920 -96.8800 39° Northeast  Level Estimated
Mon 04:15:00 PM 32.8176 -96.8065 10° North  Level FlightAware Approximate
Mon 04:15:51 PM 33.1103 -96.9819 39° Northeast 267 307 8,200  Level Fort Worth Center
Mon 04:16:00 PM 32.9285 -96.8000 North  Level FlightAware Approximate
Mon 04:16:51 PM 33.1728 -96.9519 22° Northeast 272 313 9,900  Level Fort Worth Center
Mon 04:17:00 PM 33.0399 -96.8000 North  Level FlightAware Approximate
Mon 04:17:51 PM 33.2542 -96.9142 21° North 277 319 11,700  Level Fort Worth Center
Mon 04:18:00 PM 33.1511 -96.8053 357° North  Level FlightAware Approximate
Mon 04:18:51 PM 33.3417 -96.8789 19° North 305 351 12,300  Level Fort Worth Center
Mon 04:19:51 PM 33.4333 -96.8336 22° Northeast 343 395 12,900 850 Climbing Fort Worth Center
Mon 04:20:51 PM 33.5247 -96.7781 27° Northeast 357 411 14,000 1,250 Climbing Fort Worth Center
Mon 04:21:51 PM 33.6122 -96.7200 29° Northeast 362 417 15,400 1,200 Climbing Fort Worth Center
Mon 04:22:51 PM 33.7058 -96.6619 27° Northeast 362 417 16,400 1,050 Climbing Fort Worth Center
Mon 04:23:51 PM 33.7950 -96.6036 29° Northeast 362 417 17,500 950 Climbing Fort Worth Center
Mon 04:24:51 PM 33.8844 -96.5478 27° Northeast 362 417 18,300 900 Climbing Fort Worth Center
Mon 04:25:51 PM 33.9758 -96.4867 29° Northeast 362 417 19,300 1,000 Climbing Fort Worth Center
Mon 04:26:51 PM 34.0694 -96.4281 27° Northeast 367 422 20,300 1,000 Climbing Fort Worth Center
Mon 04:28:51 PM 34.2475 -96.2778 35° Northeast 385 443 22,300 1,000 Climbing Fort Worth Center
Mon 04:29:51 PM 34.3408 -96.2011 34° Northeast 397 457 23,300 1,000 Climbing Fort Worth Center
Mon 04:30:51 PM 34.4339 -96.1269 33° Northeast 397 457 24,300 1,020 Climbing Fort Worth Center
Mon 04:32:00 PM 34.5284 -96.0221 42° Northeast  Level FlightAware Approximate
Mon 04:34:51 PM 34.7956 -95.8256 43° Northeast 392 451 28,400  Level Fort Worth Center
Mon 04:35:51 PM 34.8842 -95.7531 34° Northeast 392 451 29,400 1,000 Climbing Fort Worth Center
Mon 04:36:51 PM 34.9750 -95.6803 33° Northeast 392 451 30,400 850 Climbing Fort Worth Center
Mon 04:37:51 PM 35.0617 -95.6000 37° Northeast 392 451 31,100 556 Climbing Fort Worth Center
Mon 04:39:00 PM 35.1323 -95.4251 43° Northeast  Level FlightAware Approximate
Mon 04:39:33 PM 35.1933 -95.4514 43° Northeast 421 484 31,900  Level Memphis Center
Mon 04:40:00 PM 35.2135 -95.3317 43° Northeast  Level FlightAware Approximate
Mon 04:40:32 PM 35.2747 -95.3469 46° Northeast 421 484 32,500  Level Memphis Center
Mon 04:41:32 PM 35.3603 -95.2425 45° Northeast 421 484 33,000 250 Climbing Memphis Center
Mon 04:42:32 PM 35.4456 -95.1356 46° Northeast 427 491 33,000  Level Memphis Center
Mon 04:43:32 PM 35.5333 -95.0258 45° Northeast 440 506 33,000  Level Memphis Center
Mon 04:44:32 PM 35.6208 -94.9158 46° Northeast 440 506 33,000  Level Memphis Center
Mon 04:45:32 PM 35.7061 -94.8053 46° Northeast 440 506 33,000  Level Memphis Center
Mon 04:47:00 PM 35.8162 -94.6627 46° Northeast  Level FlightAware Approximate
Mon 04:48:32 PM 35.9656 -94.4783 43° Northeast 440 506 33,000  Level Memphis Center
Mon 04:50:00 PM 36.0837 -94.3455 42° Northeast  Level Estimated
Mon 04:50:32 PM 36.1414 -94.2583 42° Northeast 440 506 33,000  Level Memphis Center
Mon 04:51:32 PM 36.2261 -94.1492 46° Northeast 440 506 33,000  Level Memphis Center
Mon 04:52:32 PM 36.3125 -94.0450 44° Northeast 435 501 33,000  Level Memphis Center
Mon 04:53:32 PM 36.4011 -93.9433 43° Northeast 430 495 33,000  Level Memphis Center
Mon 04:54:00 PM 36.3464 -93.9854 43° Northeast  Level FlightAware Approximate
Mon 04:55:06 PM 36.5411 -93.7825 43° Northeast 434 499 33,000  Level Kansas City Center
Mon 04:56:08 PM 36.6372 -93.6683 44° Northeast 435 501 33,000  Level Kansas City Center
Mon 04:57:10 PM 36.7250 -93.5667 43° Northeast 433 498 33,000  Level Kansas City Center
Mon 04:58:12 PM 36.8128 -93.4636 43° Northeast 434 499 33,000  Level Kansas City Center
Mon 04:59:14 PM 36.9008 -93.3600 43° Northeast 432 497 33,000  Level Kansas City Center
Mon 05:00:17 PM 36.9894 -93.2561 43° Northeast 433 498 33,000  Level Kansas City Center
Mon 05:01:19 PM 37.0775 -93.1514 43° Northeast 435 501 33,000 -194 Level Kansas City Center
Mon 05:02:21 PM 37.1839 -93.0239 44° Northeast 438 504 32,600 -387 Descending Kansas City Center
Mon 05:04:00 PM 37.3133 -92.8673 44° Northeast  Level FlightAware Approximate
Mon 05:06:29 PM 37.5319 -92.6039 44° Northeast 438 504 31,000  Level Kansas City Center
Mon 05:07:31 PM 37.6200 -92.4983 44° Northeast 439 505 31,000  Level Kansas City Center
Mon 05:09:00 PM 37.7355 -92.3556 44° Northeast  Level FlightAware Approximate
Mon 05:09:35 PM 37.8092 -92.2653 44° Northeast 440 506 31,000  Level Kansas City Center
Mon 05:10:37 PM 37.8975 -92.1586 44° Northeast 440 506 31,000  Level Kansas City Center
Mon 05:11:00 PM 37.8602 -92.1972 44° Northeast  Level FlightAware Approximate
Mon 05:12:00 PM 38.0045 -92.0241 45° Northeast  Level FlightAware Approximate
Mon 05:12:00 PM 37.9380 -92.1006 44° Northeast  Level FlightAware Approximate
Mon 05:12:41 PM 38.0678 -91.9486 45° Northeast 431 496 31,000  Level Kansas City Center
Mon 05:13:43 PM 38.1722 -91.8208 44° Northeast 433 498 31,000  Level Kansas City Center
Mon 05:14:45 PM 38.2578 -91.7122 45° Northeast 433 498 31,000  Level Kansas City Center
Mon 05:15:47 PM 38.3431 -91.6056 44° Northeast 430 495 31,000  Level Kansas City Center
Mon 05:16:49 PM 38.4292 -91.4978 44° Northeast 431 496 31,000  Level Kansas City Center
Mon 05:18:00 PM 38.5201 -91.3812 45° Northeast  Level FlightAware Approximate
Mon 05:18:53 PM 38.6025 -91.2814 45° Northeast 433 498 31,000  Level Kansas City Center
Mon 05:19:55 PM 38.6878 -91.1736 45° Northeast 433 498 31,000  Level Kansas City Center
Mon 05:20:57 PM 38.7892 -91.0456 45° Northeast 429 494 31,000  Level Kansas City Center
Mon 05:21:59 PM 38.8744 -90.9369 45° Northeast 429 494 31,000  Level Kansas City Center
Mon 05:23:00 PM 38.9535 -90.8332 46° Northeast  Level FlightAware Approximate
Mon 05:25:05 PM 39.1289 -90.6106 46° Northeast 431 496 31,000  Level Kansas City Center
Mon 05:26:07 PM 39.2133 -90.5011 45° Northeast 430 495 31,000  Level Kansas City Center
Mon 05:27:09 PM 39.2972 -90.3919 45° Northeast 428 493 31,000  Level Kansas City Center
Mon 05:28:11 PM 39.3969 -90.2606 45° Northeast 426 490 31,000  Level Kansas City Center
Mon 05:29:13 PM 39.4806 -90.1519 45° Northeast 426 490 31,000  Level Kansas City Center
Mon 05:30:00 PM 39.4955 -90.1126 46° Northeast  Level FlightAware Approximate
Mon 05:31:18 PM 39.6531 -89.9250 45° Northeast 426 490 31,000  Level Chicago Center
Mon 05:32:20 PM 39.7361 -89.8169 45° Northeast 426 490 31,000  Level Chicago Center
Mon 05:34:24 PM 39.9022 -89.5967 45° Northeast 427 491 31,000  Level Chicago Center
Mon 05:35:26 PM 39.9867 -89.4889 44° Northeast 428 493 31,000  Level Chicago Center
Mon 05:37:29 PM 40.1731 -89.2486 45° Northeast 428 493 31,000  Level Kansas City Center
Mon 05:39:34 PM 40.3417 -89.0308 45° Northeast 429 494 31,000  Level Kansas City Center
Mon 05:41:00 PM 40.4531 -88.8847 45° Northeast  Level FlightAware Approximate
Mon 05:41:37 PM 40.5092 -88.8117 45° Northeast 427 491 31,000  Level Kansas City Center
Mon 05:43:43 PM 40.6922 -88.5700 45° Northeast 428 493 31,000  Level Chicago Center
Mon 05:44:45 PM 40.7761 -88.4586 45° Northeast 429 494 31,000  Level Chicago Center
Mon 05:45:47 PM 40.8608 -88.3461 45° Northeast 432 497 31,000  Level Chicago Center
Mon 05:46:49 PM 40.9622 -88.2125 45° Northeast 434 499 31,000  Level Chicago Center
Mon 05:47:51 PM 41.0461 -88.0981 46° Northeast 436 502 31,000  Level Chicago Center
Mon 05:48:53 PM 41.1292 -87.9864 45° Northeast 432 497 31,000  Level Chicago Center
Mon 05:49:55 PM 41.2119 -87.8753 45° Northeast 431 496 31,000 -699 Level Chicago Center
Mon 05:51:00 PM 41.2935 -87.7559 48° Northeast  Level FlightAware Approximate
Mon 05:53:02 PM 41.4747 -87.5178 56° Northeast 434 499 28,100  Level Chicago Center
Mon 05:54:04 PM 41.5603 -87.4047 45° Northeast 436 502 27,200 -919 Descending Chicago Center
Mon 05:55:06 PM 41.6492 -87.2881 44° Northeast 450 518 26,200 -1,065 Descending Chicago Center
Mon 05:57:00 PM 41.7878 -87.0715 49° Northeast  Level FlightAware Approximate
Mon 05:57:10 PM 41.8458 -87.0294 49° Northeast 455 524 23,900  Level Chicago Center
Mon 05:58:00 PM 41.8342 -86.9983 56° Northeast  Level FlightAware Approximate
Mon 05:59:00 PM 41.9711 -86.8095 44° Northeast  Level FlightAware Approximate
Mon 06:00:16 PM 42.0800 -86.6764 44° Northeast 424 488 18,400  Level Chicago Center
Mon 06:01:18 PM 42.1389 -86.5133 64° Northeast 402 463 16,000 -1,129 Descending Chicago Center
Mon 06:03:22 PM 42.3000 -86.3219 41° Northeast 385 443 14,900 -355 Descending Chicago Center
Mon 06:04:24 PM 42.3775 -86.2308 41° Northeast 391 450 14,900 -747 Level Chicago Center
Mon 06:06:00 PM 42.5015 -86.0557 52° Northeast  Level FlightAware Approximate
Mon 06:07:31 PM 42.6339 -85.9256 48° Northeast 380 437 11,800  Level Chicago Center
Mon 06:08:33 PM 42.6983 -85.8481 41° Northeast 317 365 10,200 -1,984 Descending Chicago Center
Mon 06:09:35 PM 42.7578 -85.7867 37° Northeast 280 322 7,700 -2,903 Descending Chicago Center
Mon 06:10:37 PM 42.8381 -85.7372 24° Northeast 267 307 4,200 -1,968 Descending Chicago Center
Mon 06:12:41 PM 42.8714 -85.5917 73° East 212 244 1,600 -1,032 Descending Chicago Center
Mon 06:13:00 PM 42.8667 -85.5167 48° Northeast  Level FlightAware Approximate
Mon 06:13:43 PM 42.8781 -85.5294 82° East 185 213 1,000  Level Chicago Center

Login

Don't have an account? Register now (free) for customized features, flight alerts, and more!